createdAt,value
2022-07-25T00:01:10.624Z,67.70
2022-07-25T00:03:39.222Z,68.30
2022-07-25T00:06:13.034Z,68.30
2022-07-25T00:08:46.090Z,68.50
2022-07-25T00:11:16.426Z,68.30
2022-07-25T00:13:44.550Z,68.70
2022-07-25T00:16:14.115Z,69.20
2022-07-25T00:18:42.269Z,68.80
2022-07-25T00:21:10.415Z,69.70
2022-07-25T00:23:38.486Z,69.50
2022-07-25T00:26:06.860Z,70.90
2022-07-25T00:28:34.988Z,70.80
2022-07-25T00:31:03.133Z,70.60
2022-07-25T00:33:32.673Z,70.40
2022-07-25T00:36:03.271Z,70.10
2022-07-25T00:38:32.588Z,70.10
2022-07-25T00:41:00.955Z,69.80
2022-07-25T00:43:29.011Z,70.10
2022-07-25T00:45:58.696Z,70.30
2022-07-25T00:48:27.795Z,69.80
2022-07-25T00:50:57.973Z,69.60
2022-07-25T00:53:26.808Z,69.70
2022-07-25T00:55:55.515Z,69.50
2022-07-25T00:58:23.729Z,69.50
2022-07-25T01:00:51.942Z,69.50
2022-07-25T01:03:20.363Z,69.70
2022-07-25T01:05:53.723Z,69.70
2022-07-25T01:08:23.966Z,70.40
2022-07-25T01:10:52.165Z,70.20
2022-07-25T01:13:20.955Z,70.00
2022-07-25T01:15:49.340Z,70.20
2022-07-25T01:18:17.490Z,70.30
2022-07-25T01:20:47.215Z,70.10
2022-07-25T01:23:15.313Z,70.10
2022-07-25T01:25:43.565Z,69.90
2022-07-25T01:28:11.603Z,70.00
2022-07-25T01:30:39.790Z,70.00
2022-07-25T01:33:07.945Z,70.10
2022-07-25T01:35:40.181Z,70.10
2022-07-25T01:38:12.706Z,70.30
2022-07-25T01:40:41.560Z,70.10
2022-07-25T01:43:10.154Z,70.10
2022-07-25T01:45:38.522Z,70.20
2022-07-25T01:48:06.884Z,70.40
2022-07-25T01:50:35.006Z,70.50
2022-07-25T01:53:03.119Z,70.70
2022-07-25T01:55:32.563Z,70.80
2022-07-25T01:58:00.666Z,71.10
2022-07-25T02:00:28.764Z,71.10
2022-07-25T02:03:10.818Z,71.70
2022-07-25T02:05:38.887Z,72.00
2022-07-25T02:08:07.090Z,72.00
2022-07-25T02:10:38.970Z,72.40
2022-07-25T02:13:07.223Z,72.60
2022-07-25T02:15:39.868Z,72.90
2022-07-25T02:18:08.308Z,73.20
2022-07-25T02:20:36.436Z,72.80
2022-07-25T02:23:04.765Z,73.00
2022-07-25T02:25:33.339Z,72.90
2022-07-25T02:28:03.008Z,72.40
2022-07-25T02:30:31.292Z,72.50
2022-07-25T02:33:00.076Z,72.90
2022-07-25T02:35:30.906Z,73.10
2022-07-25T02:37:59.416Z,72.70
2022-07-25T02:40:27.892Z,73.10
2022-07-25T02:42:56.046Z,73.40
2022-07-25T02:45:28.245Z,73.80
2022-07-25T02:47:56.314Z,74.10
2022-07-25T02:50:24.827Z,74.00
2022-07-25T02:52:54.988Z,74.00
2022-07-25T02:55:23.447Z,74.40
2022-07-25T02:57:51.808Z,75.20
2022-07-25T03:00:20.152Z,74.20
2022-07-25T03:02:49.807Z,74.30
2022-07-25T03:05:18.646Z,74.70
2022-07-25T03:07:47.048Z,75.70
2022-07-25T03:10:15.881Z,75.30
2022-07-25T03:12:44.903Z,76.20
2022-07-25T03:15:14.749Z,75.50
2022-07-25T03:17:43.154Z,77.00
2022-07-25T03:20:13.126Z,77.10
2022-07-25T03:22:42.156Z,77.00
2022-07-25T03:25:15.377Z,77.10
2022-07-25T03:27:49.485Z,77.10
2022-07-25T03:30:17.717Z,77.60
2022-07-25T03:32:45.835Z,77.50
2022-07-25T03:35:15.442Z,77.70
2022-07-25T03:37:43.625Z,79.00
2022-07-25T03:40:13.150Z,79.30
2022-07-25T03:42:41.960Z,80.20
2022-07-25T03:45:11.309Z,80.00
2022-07-25T03:47:41.946Z,79.30
2022-07-25T03:50:10.726Z,78.90
2022-07-25T03:52:40.296Z,78.60
2022-07-25T03:55:10.068Z,78.20
2022-07-25T03:57:40.393Z,77.90
2022-07-25T04:00:10.224Z,77.70
2022-07-25T04:02:38.591Z,76.70
2022-07-25T04:05:07.626Z,76.10
2022-07-25T04:07:35.922Z,75.30
2022-07-25T04:10:07.070Z,74.10
2022-07-25T04:12:36.364Z,69.80
2022-07-25T04:15:04.830Z,66.10
2022-07-25T04:17:32.919Z,62.60
2022-07-25T04:20:00.947Z,60.20
2022-07-25T04:22:29.124Z,58.80
2022-07-25T04:24:59.475Z,57.60
2022-07-25T04:27:29.162Z,56.70
2022-07-25T04:29:57.604Z,55.10
2022-07-25T04:32:25.709Z,55.00
2022-07-25T04:34:55.343Z,53.90
2022-07-25T04:37:23.441Z,52.10
2022-07-25T04:39:53.838Z,51.60
2022-07-25T04:42:21.947Z,50.50
2022-07-25T04:44:51.429Z,49.20
2022-07-25T04:47:19.623Z,48.80
2022-07-25T04:49:47.833Z,47.50
2022-07-25T04:52:18.672Z,46.40
2022-07-25T04:54:46.883Z,45.80
2022-07-25T04:57:15.192Z,45.00
2022-07-25T04:59:44.270Z,44.00
2022-07-25T05:02:13.837Z,44.20
2022-07-25T05:04:45.399Z,44.80
2022-07-25T05:07:13.897Z,45.10
2022-07-25T05:09:41.981Z,47.30
2022-07-25T05:12:10.582Z,49.10
2022-07-25T05:14:39.367Z,49.60
2022-07-25T05:17:07.755Z,51.00
2022-07-25T05:19:37.243Z,51.40
2022-07-25T05:22:05.813Z,53.10
2022-07-25T05:24:34.735Z,53.90
2022-07-25T05:27:03.320Z,54.90
2022-07-25T05:29:31.571Z,54.90
2022-07-25T05:31:59.892Z,55.40
2022-07-25T05:34:30.280Z,56.40
2022-07-25T05:36:59.783Z,55.80
2022-07-25T05:39:28.070Z,55.50
2022-07-25T05:41:56.209Z,55.50
2022-07-25T05:44:24.377Z,55.40
2022-07-25T05:46:52.562Z,55.10
2022-07-25T05:49:20.805Z,55.00
2022-07-25T05:51:48.836Z,54.70
2022-07-25T05:54:18.498Z,54.90
2022-07-25T05:56:46.629Z,54.60
2022-07-25T05:59:14.743Z,54.40
2022-07-25T06:01:44.433Z,54.30
2022-07-25T06:04:12.988Z,54.00
2022-07-25T06:06:41.185Z,53.70
2022-07-25T06:09:09.574Z,53.60
2022-07-25T06:11:51.046Z,53.10
2022-07-25T06:14:26.155Z,53.40
2022-07-25T06:16:55.251Z,53.40
2022-07-25T06:19:23.539Z,52.40
2022-07-25T06:21:51.670Z,52.30
2022-07-25T06:24:20.026Z,52.10
2022-07-25T06:26:49.448Z,51.80
2022-07-25T06:29:17.598Z,51.80
2022-07-25T06:31:46.351Z,51.70
2022-07-25T06:34:15.457Z,51.50
2022-07-25T06:36:43.579Z,51.30
2022-07-25T06:39:11.793Z,51.00
2022-07-25T06:41:39.899Z,50.80
2022-07-25T06:44:09.685Z,50.30
2022-07-25T06:46:38.074Z,50.10
2022-07-25T06:49:06.334Z,49.80
2022-07-25T06:51:35.907Z,50.00
2022-07-25T06:54:04.364Z,49.10
2022-07-25T06:56:33.065Z,49.00
2022-07-25T06:59:01.540Z,48.90
2022-07-25T07:01:31.178Z,48.80
2022-07-25T07:03:59.356Z,48.50
2022-07-25T07:06:27.436Z,48.30
2022-07-25T07:08:56.069Z,48.00
2022-07-25T07:11:24.442Z,47.60
2022-07-25T07:13:52.544Z,47.10
2022-07-25T07:16:20.732Z,46.90
2022-07-25T07:18:50.249Z,47.30
2022-07-25T07:21:21.759Z,47.10
2022-07-25T07:23:53.449Z,46.60
2022-07-25T07:26:22.310Z,46.20
2022-07-25T07:28:50.456Z,45.90
2022-07-25T07:31:19.214Z,45.70
2022-07-25T07:33:47.721Z,45.10
2022-07-25T07:36:17.869Z,44.10
2022-07-25T07:38:46.025Z,43.50
2022-07-25T07:41:14.656Z,43.30
2022-07-25T07:43:43.171Z,43.60
2022-07-25T07:46:11.323Z,43.40
2022-07-25T07:48:40.082Z,42.80
2022-07-25T07:51:08.317Z,42.30
2022-07-25T07:53:55.373Z,42.40
2022-07-25T07:56:23.472Z,42.00
2022-07-25T07:58:51.532Z,40.70
2022-07-25T08:01:19.621Z,40.70
2022-07-25T08:03:47.809Z,40.60
2022-07-25T08:06:18.386Z,40.40
2022-07-25T08:08:47.957Z,39.90
2022-07-25T08:11:16.075Z,39.80
2022-07-25T08:13:44.251Z,39.70
2022-07-25T08:16:13.802Z,39.80
2022-07-25T08:18:41.978Z,39.20
2022-07-25T08:21:11.047Z,39.20
2022-07-25T08:23:39.416Z,39.40
2022-07-25T08:26:09.045Z,38.50
2022-07-25T08:28:37.207Z,38.50
2022-07-25T08:31:05.401Z,38.20
2022-07-25T08:33:33.642Z,37.90
2022-07-25T08:36:02.011Z,37.90
2022-07-25T08:38:30.292Z,37.40
2022-07-25T08:41:00.273Z,37.20
2022-07-25T08:43:32.970Z,36.90
2022-07-25T08:46:03.008Z,37.20
2022-07-25T08:48:31.237Z,37.00
2022-07-25T08:51:00.446Z,36.70
2022-07-25T08:53:33.318Z,36.00
2022-07-25T08:56:06.684Z,36.60
2022-07-25T08:58:41.342Z,36.60
2022-07-25T09:01:10.093Z,36.10
2022-07-25T09:03:38.588Z,35.70
2022-07-25T09:06:16.390Z,36.40
2022-07-25T09:08:52.722Z,35.90
2022-07-25T09:11:31.924Z,35.70
2022-07-25T09:14:08.539Z,35.30
2022-07-25T09:16:40.031Z,35.40
2022-07-25T09:19:11.659Z,35.20
2022-07-25T09:21:40.866Z,35.30
2022-07-25T09:24:11.345Z,35.20
2022-07-25T09:26:47.872Z,35.40
2022-07-25T09:29:23.068Z,35.40
2022-07-25T09:31:51.468Z,35.20
2022-07-25T09:34:34.890Z,35.20
2022-07-25T09:37:04.314Z,35.40
2022-07-25T09:39:40.744Z,35.00
2022-07-25T09:42:33.434Z,35.10
2022-07-25T09:45:07.836Z,35.50
2022-07-25T09:47:38.113Z,35.60
2022-07-25T09:50:07.564Z,35.50
2022-07-25T09:52:36.791Z,35.20
2022-07-25T09:55:08.069Z,35.10
2022-07-25T09:57:36.224Z,34.80
2022-07-25T10:00:10.310Z,34.60
2022-07-25T10:02:51.740Z,34.90
2022-07-25T10:05:32.133Z,34.70
2022-07-25T10:08:01.078Z,34.40
2022-07-25T10:10:32.911Z,34.20
2022-07-25T10:13:10.602Z,34.10
2022-07-25T10:15:48.989Z,33.80
2022-07-25T10:18:19.582Z,33.80
2022-07-25T10:20:49.299Z,34.00
2022-07-25T10:23:25.669Z,33.00
2022-07-25T10:26:10.616Z,32.80
2022-07-25T10:28:44.903Z,33.50
2022-07-25T10:31:19.395Z,33.70
2022-07-25T10:33:51.845Z,33.70
2022-07-25T10:36:21.016Z,33.70
2022-07-25T10:38:51.893Z,33.90
2022-07-25T10:41:25.906Z,34.30
2022-07-25T10:44:00.713Z,34.10
2022-07-25T10:46:36.516Z,33.80
2022-07-25T10:49:07.796Z,34.00
2022-07-25T10:51:41.537Z,34.80
2022-07-25T10:54:15.227Z,34.00
2022-07-25T10:56:53.737Z,33.50
2022-07-25T10:59:30.953Z,32.80
2022-07-25T11:02:01.544Z,32.20
2022-07-25T11:04:30.232Z,32.00
2022-07-25T11:06:59.082Z,31.80
2022-07-25T11:09:28.580Z,31.50
2022-07-25T11:11:58.520Z,32.10
2022-07-25T11:14:32.659Z,32.70
2022-07-25T11:17:14.476Z,31.40
2022-07-25T11:19:56.424Z,31.00
2022-07-25T11:22:24.920Z,30.70
2022-07-25T11:24:53.085Z,31.50
2022-07-25T11:27:25.464Z,32.10
2022-07-25T11:29:54.101Z,31.80
2022-07-25T11:32:23.794Z,32.20
2022-07-25T11:34:54.422Z,32.30
2022-07-25T11:37:22.869Z,32.60
2022-07-25T11:39:53.069Z,32.40
2022-07-25T11:42:21.948Z,32.70
2022-07-25T11:44:52.809Z,32.30
2022-07-25T11:47:27.649Z,30.90
2022-07-25T11:49:57.708Z,30.30
2022-07-25T11:52:30.121Z,30.00
2022-07-25T11:54:59.646Z,29.20
2022-07-25T11:57:30.708Z,29.50
2022-07-25T12:00:00.634Z,29.60
2022-07-25T12:02:32.139Z,29.70
2022-07-25T12:05:02.020Z,29.20
2022-07-25T12:07:40.560Z,29.10
2022-07-25T12:10:10.916Z,29.50
2022-07-25T12:12:45.312Z,29.20
2022-07-25T12:15:14.920Z,30.00
2022-07-25T12:17:44.491Z,30.50
2022-07-25T12:20:16.753Z,30.60
2022-07-25T12:22:45.147Z,30.80
2022-07-25T12:25:14.026Z,31.30
2022-07-25T12:27:42.668Z,30.80
2022-07-25T12:30:12.379Z,30.70
2022-07-25T12:32:40.632Z,30.00
2022-07-25T12:35:12.309Z,29.80
2022-07-25T12:37:41.734Z,30.00
2022-07-25T12:40:12.498Z,29.30
2022-07-25T12:42:41.285Z,29.70
2022-07-25T12:45:10.424Z,29.20
2022-07-25T12:47:39.003Z,30.00
2022-07-25T12:50:09.839Z,30.10
2022-07-25T12:52:38.991Z,29.80
2022-07-25T12:55:08.534Z,30.10
2022-07-25T12:57:37.645Z,29.80
2022-07-25T13:00:07.356Z,30.00
2022-07-25T13:02:35.914Z,30.40
2022-07-25T13:05:04.380Z,29.30
2022-07-25T13:07:36.411Z,28.20
2022-07-25T13:10:08.183Z,28.20
2022-07-25T13:12:36.506Z,28.70
2022-07-25T13:15:04.980Z,28.30
2022-07-25T13:17:33.311Z,27.50
2022-07-25T13:20:01.795Z,26.60
2022-07-25T13:22:30.104Z,26.50
2022-07-25T13:24:59.595Z,26.80
2022-07-25T13:27:27.872Z,24.70
2022-07-25T13:29:56.131Z,25.20
2022-07-25T13:32:26.425Z,24.10
2022-07-25T13:34:56.013Z,23.60
2022-07-25T13:37:24.188Z,23.70
2022-07-25T13:39:52.276Z,23.80
2022-07-25T13:42:21.732Z,23.80
2022-07-25T13:44:49.971Z,23.30
2022-07-25T13:47:18.185Z,23.20
2022-07-25T13:49:46.511Z,23.60
2022-07-25T13:52:18.205Z,23.10
2022-07-25T13:54:46.283Z,23.30
2022-07-25T13:57:14.413Z,24.00
2022-07-25T13:59:43.921Z,23.80
2022-07-25T14:02:12.091Z,24.20
2022-07-25T14:04:41.055Z,24.70
2022-07-25T14:07:09.292Z,24.30
2022-07-25T14:09:37.909Z,24.70
2022-07-25T14:12:06.483Z,25.00
2022-07-25T14:14:34.608Z,24.70
2022-07-25T14:17:04.173Z,24.90
2022-07-25T14:19:32.490Z,25.40
2022-07-25T14:22:00.741Z,25.00
2022-07-25T14:24:28.972Z,25.30
2022-07-25T14:26:57.156Z,25.10
2022-07-25T14:29:30.318Z,25.00
2022-07-25T14:31:58.808Z,25.20
2022-07-25T14:34:28.284Z,25.30
2022-07-25T14:36:56.423Z,25.40
2022-07-25T14:39:24.569Z,25.70
2022-07-25T14:41:53.204Z,25.30
2022-07-25T14:44:21.935Z,25.60
2022-07-25T14:46:51.251Z,25.50
2022-07-25T14:49:19.849Z,25.80
2022-07-25T14:51:49.957Z,25.80
2022-07-25T14:54:18.527Z,25.50
2022-07-25T14:56:46.751Z,25.10
2022-07-25T14:59:14.937Z,25.20
2022-07-25T15:01:46.373Z,25.30
2022-07-25T15:04:14.473Z,25.60
2022-07-25T15:06:42.527Z,25.70
2022-07-25T15:09:12.201Z,26.40
2022-07-25T15:11:42.838Z,26.50
2022-07-25T15:14:11.081Z,27.20
2022-07-25T15:16:39.748Z,27.50
2022-07-25T15:19:17.628Z,28.20
2022-07-25T15:21:46.184Z,28.60
2022-07-25T15:24:18.747Z,28.70
2022-07-25T15:26:46.923Z,29.10
2022-07-25T15:29:20.385Z,29.40
2022-07-25T15:31:48.947Z,29.20
2022-07-25T15:34:17.447Z,29.40
2022-07-25T15:36:45.593Z,29.50
2022-07-25T15:39:15.429Z,29.50
2022-07-25T15:41:43.640Z,29.40
2022-07-25T15:44:11.797Z,29.80
2022-07-25T15:46:40.701Z,29.40
2022-07-25T15:49:10.847Z,29.40
2022-07-25T15:51:39.260Z,29.40
2022-07-25T15:54:07.798Z,29.60
2022-07-25T15:56:37.431Z,29.70
2022-07-25T15:59:05.889Z,29.80
2022-07-25T16:01:34.439Z,30.00
2022-07-25T16:04:02.607Z,30.50
2022-07-25T16:06:31.382Z,31.20
2022-07-25T16:08:59.487Z,31.40
2022-07-25T16:11:27.636Z,31.60
2022-07-25T16:13:57.085Z,31.70
2022-07-25T16:16:25.734Z,32.00
2022-07-25T16:18:54.319Z,31.80
2022-07-25T16:21:22.506Z,32.00
2022-07-25T16:23:50.687Z,32.30
2022-07-25T16:26:19.275Z,32.20
2022-07-25T16:28:48.868Z,32.10
2022-07-25T16:31:18.447Z,32.10
2022-07-25T16:33:46.591Z,32.10
2022-07-25T16:36:14.772Z,32.10
2022-07-25T16:38:43.860Z,33.00
2022-07-25T16:41:11.938Z,34.50
2022-07-25T16:43:40.056Z,34.00
2022-07-25T16:46:08.610Z,33.40
2022-07-25T16:48:38.699Z,33.00
2022-07-25T16:51:09.050Z,32.80
2022-07-25T16:53:37.281Z,32.20
2022-07-25T16:56:05.795Z,31.40
2022-07-25T16:58:34.921Z,31.80
2022-07-25T17:01:03.287Z,31.60
2022-07-25T17:03:31.664Z,31.90
2022-07-25T17:06:03.447Z,31.20
2022-07-25T17:08:32.400Z,31.30
2022-07-25T17:11:01.622Z,31.50
2022-07-25T17:13:29.692Z,31.50
2022-07-25T17:15:58.521Z,31.60
2022-07-25T17:18:26.742Z,31.20
2022-07-25T17:20:55.554Z,31.60
2022-07-25T17:23:25.427Z,30.90
2022-07-25T17:25:54.659Z,30.80
2022-07-25T17:28:23.241Z,30.60
2022-07-25T17:30:51.605Z,30.50
2022-07-25T17:33:19.970Z,30.70
2022-07-25T17:35:48.037Z,30.90
2022-07-25T17:38:16.156Z,31.20
2022-07-25T17:40:45.742Z,31.10
2022-07-25T17:43:13.998Z,31.40
2022-07-25T17:45:42.259Z,31.50
2022-07-25T17:48:10.444Z,31.90
2022-07-25T17:50:38.506Z,31.80
2022-07-25T17:53:06.628Z,32.00
2022-07-25T17:55:38.674Z,32.20
2022-07-25T17:58:08.835Z,32.80
2022-07-25T18:00:36.956Z,33.00
2022-07-25T18:03:05.991Z,33.30
2022-07-25T18:05:34.161Z,33.60
2022-07-25T18:08:02.984Z,33.80
2022-07-25T18:10:31.975Z,34.00
2022-07-25T18:13:02.065Z,34.20
2022-07-25T18:15:31.848Z,34.50
2022-07-25T18:18:00.019Z,34.60
2022-07-25T18:20:29.072Z,34.70
2022-07-25T18:22:58.562Z,34.60
2022-07-25T18:25:29.653Z,35.10
2022-07-25T18:27:57.856Z,35.40
2022-07-25T18:30:29.297Z,35.90
2022-07-25T18:32:59.006Z,36.10
2022-07-25T18:35:27.286Z,36.50
2022-07-25T18:37:55.569Z,36.60
2022-07-25T18:40:23.635Z,36.50
2022-07-25T18:42:53.041Z,36.80
2022-07-25T18:45:21.528Z,37.10
2022-07-25T18:47:49.780Z,37.30
2022-07-25T18:50:21.555Z,38.10
2022-07-25T18:52:49.649Z,37.80
2022-07-25T18:55:17.823Z,38.10
2022-07-25T18:57:45.908Z,38.50
2022-07-25T19:00:14.645Z,38.70
2022-07-25T19:02:42.846Z,38.60
2022-07-25T19:05:11.066Z,38.80
2022-07-25T19:07:41.201Z,39.10
2022-07-25T19:10:10.823Z,39.20
2022-07-25T19:12:39.141Z,39.40
2022-07-25T19:15:09.866Z,39.40
2022-07-25T19:17:38.209Z,39.80
2022-07-25T19:20:07.513Z,39.50
2022-07-25T19:22:36.119Z,39.60
2022-07-25T19:25:08.614Z,40.00
2022-07-25T19:27:37.405Z,40.40
2022-07-25T19:30:15.209Z,40.80
2022-07-25T19:32:46.057Z,41.10
2022-07-25T19:35:15.015Z,41.40
2022-07-25T19:37:43.154Z,41.90
2022-07-25T19:40:14.119Z,41.90
2022-07-25T19:42:42.606Z,42.00
2022-07-25T19:45:11.862Z,42.10
2022-07-25T19:47:42.201Z,41.80
2022-07-25T19:50:10.468Z,42.20
2022-07-25T19:52:38.897Z,42.40
2022-07-25T19:55:07.932Z,42.70
2022-07-25T19:57:37.513Z,42.70
2022-07-25T20:00:07.437Z,42.70
2022-07-25T20:02:40.236Z,43.20
2022-07-25T20:05:09.259Z,43.40
2022-07-25T20:07:37.419Z,43.20
2022-07-25T20:10:06.135Z,42.80
2022-07-25T20:12:34.481Z,43.00
2022-07-25T20:15:04.887Z,43.30
2022-07-25T20:17:32.906Z,43.50
2022-07-25T20:20:01.148Z,43.70
2022-07-25T20:22:29.251Z,44.00
2022-07-25T20:24:57.329Z,44.30
2022-07-25T20:27:25.472Z,44.00
2022-07-25T20:29:55.966Z,43.90
2022-07-25T20:32:25.393Z,43.60
2022-07-25T20:34:53.501Z,43.70
2022-07-25T20:37:21.549Z,43.10
2022-07-25T20:39:49.867Z,43.70
2022-07-25T20:42:20.832Z,43.00
2022-07-25T20:44:48.860Z,42.70
2022-07-25T20:47:17.612Z,42.70
2022-07-25T20:49:47.027Z,41.90
2022-07-25T20:52:15.438Z,40.90
2022-07-25T20:54:43.845Z,40.50
2022-07-25T20:57:13.923Z,40.30
2022-07-25T20:59:42.022Z,40.20
2022-07-25T21:02:11.393Z,40.30
2022-07-25T21:04:39.574Z,40.30
2022-07-25T21:07:08.973Z,40.40
2022-07-25T21:09:37.969Z,40.60
2022-07-25T21:12:06.578Z,40.10
2022-07-25T21:14:37.385Z,39.60
2022-07-25T21:17:05.665Z,39.80
2022-07-25T21:19:34.011Z,39.90
2022-07-25T21:22:03.398Z,39.90
2022-07-25T21:24:33.330Z,40.10
2022-07-25T21:27:01.899Z,40.30
2022-07-25T21:29:30.028Z,41.20
2022-07-25T21:31:58.212Z,40.60
2022-07-25T21:34:26.502Z,40.80
2022-07-25T21:36:54.557Z,41.10
2022-07-25T21:39:22.727Z,41.80
2022-07-25T21:41:55.480Z,43.50
2022-07-25T21:44:23.656Z,44.70
2022-07-25T21:46:51.751Z,46.20
2022-07-25T21:49:41.468Z,47.30
2022-07-25T21:52:14.385Z,47.20
2022-07-25T21:54:42.675Z,48.40
2022-07-25T21:57:13.247Z,49.50
2022-07-25T21:59:45.941Z,50.80
2022-07-25T22:02:18.224Z,51.60
2022-07-25T22:04:46.289Z,52.30
2022-07-25T22:07:14.300Z,52.80
2022-07-25T22:09:42.537Z,53.30
2022-07-25T22:12:12.019Z,54.00
2022-07-25T22:14:40.082Z,54.40
2022-07-25T22:17:08.420Z,54.90
2022-07-25T22:19:37.086Z,55.40
2022-07-25T22:22:06.724Z,55.90
2022-07-25T22:24:34.844Z,56.40
2022-07-25T22:27:02.936Z,56.20
2022-07-25T22:29:32.425Z,56.40
2022-07-25T22:32:02.657Z,56.60
2022-07-25T22:34:31.037Z,56.90
2022-07-25T22:36:59.253Z,56.90
2022-07-25T22:39:27.391Z,57.20
2022-07-25T22:41:55.576Z,57.40
2022-07-25T22:44:23.654Z,57.60
2022-07-25T22:46:53.168Z,57.90
2022-07-25T22:49:23.195Z,58.10
2022-07-25T22:51:51.372Z,58.30
2022-07-25T22:54:19.505Z,58.40
2022-07-25T22:56:47.589Z,58.50
2022-07-25T22:59:16.136Z,58.50
2022-07-25T23:01:44.224Z,58.80
2022-07-25T23:04:13.798Z,58.90
2022-07-25T23:06:45.697Z,59.60
2022-07-25T23:09:36.695Z,58.90
2022-07-25T23:12:09.650Z,58.80
2022-07-25T23:14:42.534Z,59.10
2022-07-25T23:17:20.031Z,59.10
2022-07-25T23:19:51.280Z,59.50
2022-07-25T23:22:20.459Z,59.40
2022-07-25T23:24:48.745Z,59.60
2022-07-25T23:27:17.283Z,59.70
2022-07-25T23:29:46.308Z,60.00
2022-07-25T23:32:14.562Z,60.10
2022-07-25T23:34:42.648Z,60.30
2022-07-25T23:37:12.501Z,60.50
2022-07-25T23:39:42.672Z,61.80
2022-07-25T23:42:10.855Z,61.00
2022-07-25T23:44:42.768Z,60.90
2022-07-25T23:47:12.669Z,61.10
2022-07-25T23:49:41.363Z,61.20
2022-07-25T23:52:10.928Z,61.00
2022-07-25T23:54:40.549Z,61.00
2022-07-25T23:57:09.236Z,61.40
2022-07-25T23:59:37.652Z,61.60
